Time;durP1;ratioP1;P1;durP2;ratioP2;P2;SDS_P1;SDS_P2;PMS_P1;PMS_P2;Temp;Humidity;BMP_temperature;BMP_pressure;BME280_temperature;BME280_humidity;BME280_pressure;Samples;Min_cycle;Max_cycle;Signal;HPM_P1;HPM_P2
2023/09/27 00:10:04;;;;;;;35.00;25.50;;;;;;;16.47;87.81;99382.41;435268;1256;98824;-41
2023/09/27 00:20:15;;;;;;;;;;;;;;;16.45;88.13;99377.23;435280;1257;112013;-42
2023/09/27 00:30:24;;;;;;;32.70;24.20;;;;;;;16.41;88.13;99377.23;434915;1257;514652;-42
2023/09/27 00:40:32;;;;;;;38.90;28.30;;;;;;;16.36;88.48;99377.02;435386;1251;99231;-47
2023/09/27 00:50:40;;;;;;;40.40;29.60;;;;;;;16.32;88.42;99373.71;435199;1258;107223;-44
2023/09/27 01:00:50;;;;;;;40.10;27.40;;;;;;;16.27;88.62;99374.59;435072;1256;99253;-42
2023/09/27 01:10:58;;;;;;;32.50;24.60;;;;;;;16.21;88.92;99375.28;435278;1258;112297;-42
2023/09/27 01:21:06;;;;;;;37.60;27.00;;;;;;;16.14;88.97;99368.48;435152;1257;107298;-43
2023/09/27 01:31:14;;;;;;;30.90;24.00;;;;;;;16.11;89.03;99364.36;435176;1251;99317;-42
2023/09/27 01:41:22;;;;;;;32.30;24.60;;;;;;;15.96;89.05;99369.40;435157;1252;109620;-42
2023/09/27 01:51:30;;;;;;;32.30;24.10;;;;;;;15.88;89.11;99365.30;435331;1251;99240;-42
2023/09/27 02:01:37;;;;;;;34.30;26.20;;;;;;;15.77;89.44;99364.97;436094;1247;111963;-41
2023/09/27 02:11:44;;;;;;;35.40;24.60;;;;;;;15.74;89.61;99362.80;435089;1251;107314;-44
2023/09/27 02:21:51;;;;;;;34.50;25.70;;;;;;;15.69;89.65;99362.68;435185;1256;99246;-42
2023/09/27 02:31:58;;;;;;;38.30;25.60;;;;;;;15.64;89.78;99366.88;435125;1258;107649;-41
2023/09/27 02:42:04;;;;;;;33.40;25.00;;;;;;;15.54;89.86;99365.59;435212;1257;99221;-42
2023/09/27 02:52:11;;;;;;;38.70;25.30;;;;;;;15.42;89.89;99360.60;435310;1251;111681;-42
2023/09/27 03:02:20;;;;;;;33.30;24.10;;;;;;;15.33;90.27;99356.83;435188;1255;109590;-41
2023/09/27 03:12:28;;;;;;;43.10;25.70;;;;;;;15.24;90.41;99365.95;435097;1258;99230;-42
2023/09/27 03:22:35;;;;;;;38.80;27.30;;;;;;;15.16;90.55;99364.71;435203;1257;108366;-42
2023/09/27 03:32:41;;;;;;;43.80;29.90;;;;;;;15.12;90.76;99361.53;435365;1251;99215;-42
2023/09/27 03:42:48;;;;;;;39.30;28.50;;;;;;;15.04;90.70;99352.20;435107;1257;113244;-41
2023/09/27 03:52:58;;;;;;;39.60;27.70;;;;;;;14.99;90.82;99355.90;435114;1251;107608;-42
2023/09/27 04:13:12;;;;;;;42.70;26.10;;;;;;;14.84;90.85;99368.45;435010;1266;109187;-42
2023/09/27 04:23:19;;;;;;;34.00;25.40;;;;;;;14.71;91.01;99370.70;435142;1255;99259;-41
2023/09/27 04:33:26;;;;;;;43.40;28.20;;;;;;;14.63;91.27;99375.34;435370;1257;111689;-44
2023/09/27 04:43:33;;;;;;;46.70;31.30;;;;;;;14.57;91.45;99387.02;435302;1251;105787;-42
2023/09/27 04:53:40;;;;;;;43.40;29.80;;;;;;;14.56;91.78;99390.14;435778;1258;99211;-41
2023/09/27 05:13:54;;;;;;;45.70;31.30;;;;;;;14.72;92.07;99405.16;435482;1256;99243;-41
2023/09/27 05:23:58;;;;;;;36.80;28.70;;;;;;;14.93;92.39;99404.46;435224;1251;110785;-42
2023/09/27 05:34:04;;;;;;;45.40;32.80;;;;;;;15.54;92.65;99402.90;436866;1256;107884;-41
2023/09/27 05:44:11;;;;;;;55.40;38.40;;;;;;;16.16;92.40;99405.78;435149;1254;99253;-42
2023/09/27 06:04:26;;;;;;;35.40;27.60;;;;;;;17.49;91.78;99417.68;435161;1257;99746;-42
2023/09/27 06:24:38;;;;;;;36.90;26.50;;;;;;;18.99;90.60;99419.39;435281;1251;108328;-42
2023/09/27 06:54:56;;;;;;;27.40;19.60;;;;;;;20.03;86.60;99449.00;435221;1254;98009;-42
2023/09/27 07:15:12;;;;;;;24.70;14.70;;;;;;;20.03;85.46;99464.52;435230;1256;106926;-41
2023/09/27 07:45:36;;;;;;;22.20;14.70;;;;;;;20.86;83.95;99480.71;435272;1251;99106;-42
2023/09/27 08:05:49;;;;;;;17.00;11.70;;;;;;;22.55;81.63;99495.15;435299;1253;108046;-43
2023/09/27 08:15:55;;;;;;;18.80;11.60;;;;;;;23.08;79.74;99498.98;435273;1251;98005;-42
2023/09/27 08:26:02;;;;;;;15.80;10.70;;;;;;;23.62;78.53;99504.59;435431;1251;108259;-40
2023/09/27 08:36:09;;;;;;;19.10;10.10;;;;;;;23.99;76.77;99503.59;435437;1251;99113;-41
2023/09/27 08:46:17;;;;;;;17.50;9.20;;;;;;;24.43;74.93;99505.69;435313;1256;111702;-42
2023/09/27 08:56:24;;;;;;;15.40;8.50;;;;;;;24.64;72.66;99499.12;435342;1256;108066;-41
2023/09/27 09:06:30;;;;;;;21.60;8.90;;;;;;;24.88;69.89;99489.23;435418;1253;98265;-42
2023/09/27 09:26:47;;;;;;;15.70;7.30;;;;;;;25.71;68.63;99499.99;435471;1256;98035;-42
2023/09/27 09:47:09;;;;;;;13.30;7.90;;;;;;;26.39;66.47;99502.89;435756;1256;109453;-40
2023/09/27 09:57:19;;;;;;;10.30;6.00;;;;;;;26.67;65.37;99496.36;435889;1251;99221;-43
2023/09/27 10:07:28;;;;;;;12.90;5.80;;;;;;;26.63;62.09;99496.85;435694;1250;108243;-42
2023/09/27 10:28:04;;;;;;;8.30;6.00;;;;;;;26.60;59.03;99490.59;435837;1255;112880;-41
2023/09/27 10:38:12;;;;;;;9.10;5.50;;;;;;;26.63;57.65;99486.32;435336;1251;108145;-42
2023/09/27 10:48:18;;;;;;;10.80;6.30;;;;;;;26.78;56.53;99488.33;435688;1254;99247;-42
2023/09/27 10:58:26;;;;;;;14.90;6.30;;;;;;;26.93;55.73;99483.39;435707;1251;106937;-42
2023/09/27 11:08:33;;;;;;;13.30;5.90;;;;;;;26.72;52.08;99478.44;435552;1251;99189;-42
2023/09/27 11:18:45;;;;;;;10.20;5.70;;;;;;;26.84;53.25;99464.98;435246;1256;112179;-41
2023/09/27 11:28:59;;;;;;;10.00;5.70;;;;;;;26.96;52.83;99447.27;435126;1256;107671;-40
2023/09/27 11:39:04;;;;;;;8.90;5.90;;;;;;;26.74;50.53;99445.20;435350;1253;99227;-42
2023/09/27 11:49:12;;;;;;;12.90;5.70;;;;;;;26.55;50.04;99441.15;435225;1251;107658;-41
2023/09/27 11:59:19;;;;;;;12.00;6.20;;;;;;;26.53;50.08;99439.73;435283;1253;99859;-41
2023/09/27 12:09:26;;;;;;;7.90;5.50;;;;;;;26.47;50.21;99429.76;435237;1256;111795;-42
2023/09/27 12:29:39;;;;;;;13.60;7.00;;;;;;;26.30;49.44;99406.10;434926;1251;384429;-43
2023/09/27 12:39:46;;;;;;;10.20;6.00;;;;;;;26.15;48.95;99388.02;435237;1256;106735;-41
2023/09/27 12:49:52;;;;;;;14.80;5.80;;;;;;;26.02;47.65;99380.09;435265;1251;98503;-41
2023/09/27 12:59:59;;;;;;;10.20;5.50;;;;;;;25.88;46.88;99373.38;435231;1253;112011;-43
2023/09/27 13:10:08;;;;;;;11.80;5.40;;;;;;;25.86;47.00;99362.70;435133;1251;108097;-41
2023/09/27 13:20:15;;;;;;;8.90;5.10;;;;;;;25.85;46.31;99354.23;435184;1252;99461;-43
2023/09/27 13:30:23;;;;;;;12.80;5.90;;;;;;;25.77;46.79;99347.28;435256;1251;109481;-42
2023/09/27 13:40:40;;;;;;;8.20;5.50;;;;;;;25.74;45.27;99341.03;435239;1256;99119;-43
2023/09/27 13:50:47;;;;;;;8.60;5.40;;;;;;;25.59;45.18;99331.84;435409;1253;110385;-41
2023/09/27 14:00:54;;;;;;;11.20;5.60;;;;;;;25.57;44.34;99327.06;435226;1256;108057;-42
2023/09/27 14:11:02;;;;;;;14.70;5.10;;;;;;;25.49;44.43;99319.24;435324;1256;98045;-41
2023/09/27 14:21:08;;;;;;;8.80;5.10;;;;;;;25.42;44.28;99314.19;435143;1252;107408;-42
2023/09/27 14:31:16;;;;;;;11.20;4.40;;;;;;;25.32;44.14;99298.69;435287;1253;99176;-43
2023/09/27 14:41:23;;;;;;;13.10;6.40;;;;;;;25.20;43.93;99287.89;435287;1256;110559;-43
2023/09/27 14:51:28;;;;;;;9.80;4.50;;;;;;;25.12;43.97;99279.73;435385;1255;107375;-43
2023/09/27 15:01:36;;;;;;;10.10;4.90;;;;;;;24.94;43.74;99284.20;435256;1254;98845;-42
2023/09/27 15:11:41;;;;;;;9.40;6.10;;;;;;;24.80;44.65;99281.39;435381;1251;108734;-43
2023/09/27 15:21:48;;;;;;;8.40;5.50;;;;;;;24.59;44.88;99279.13;435162;1254;97985;-44
2023/09/27 15:31:55;;;;;;;9.90;5.30;;;;;;;24.42;45.39;99272.23;435240;1255;110903;-42
2023/09/27 15:42:01;;;;;;;;;;;;;;;24.16;45.80;99262.92;435143;1253;108492;-42
2023/09/27 15:52:08;;;;;;;12.50;6.30;;;;;;;23.84;46.94;99259.88;435194;1253;99347;-42
2023/09/27 16:02:15;;;;;;;13.90;6.40;;;;;;;23.44;47.73;99252.87;435325;1252;107442;-42
2023/09/27 16:12:21;;;;;;;10.60;6.80;;;;;;;22.95;48.74;99257.27;435280;1256;99228;-42
2023/09/27 16:34:14;;;;;;;31.00;8.80;;;;;;;21.67;51.40;99260.94;435172;1253;109000;-42
2023/09/27 16:44:22;;;;;;;17.90;10.10;;;;;;;21.02;52.68;99260.02;435243;1256;99237;-42
2023/09/27 16:54:30;;;;;;;17.00;12.20;;;;;;;20.62;53.85;99260.61;435204;1253;107725;-43
2023/09/27 17:04:36;;;;;;;;;;;;;;;20.33;54.87;99262.23;435180;1256;99227;-42
2023/09/27 17:14:44;;;;;;;22.70;14.10;;;;;;;19.88;56.04;99263.73;435262;1254;112359;-44
2023/09/27 17:24:51;;;;;;;17.70;14.40;;;;;;;19.56;57.06;99265.29;435158;1253;107657;-43
2023/09/27 17:34:59;;;;;;;27.40;14.30;;;;;;;19.52;58.05;99261.90;435152;1257;99321;-43
2023/09/27 17:45:09;;;;;;;23.80;14.30;;;;;;;19.50;58.97;99262.06;435265;1252;107061;-42
2023/09/27 17:55:14;;;;;;;28.00;13.50;;;;;;;19.53;59.48;99261.31;435310;1253;98736;-40
2023/09/27 18:05:21;;;;;;;14.30;10.90;;;;;;;19.37;59.95;99261.30;435330;1252;111108;-41
2023/09/27 18:15:28;;;;;;;16.60;10.70;;;;;;;19.17;60.23;99263.09;435350;1253;110268;-41
2023/09/27 18:25:35;;;;;;;25.30;10.40;;;;;;;19.29;60.86;99264.79;435187;1256;99221;-41
2023/09/27 18:45:47;;;;;;;17.10;10.10;;;;;;;19.35;61.72;99266.05;435226;1252;99253;-41
2023/09/27 18:55:55;;;;;;;14.00;11.50;;;;;;;19.26;62.23;99266.94;435193;1256;112929;-42
2023/09/27 19:06:02;;;;;;;19.50;11.00;;;;;;;19.17;62.55;99266.85;435250;1257;107601;-41
2023/09/27 19:16:09;;;;;;;19.10;10.60;;;;;;;19.09;62.90;99262.46;435278;1251;99239;-41
2023/09/27 19:26:17;;;;;;;15.00;11.00;;;;;;;18.86;63.35;99263.00;435209;1256;109444;-42
2023/09/27 19:36:24;;;;;;;17.70;12.00;;;;;;;18.56;63.88;99258.62;435216;1252;99339;-42
2023/09/27 19:46:31;;;;;;;15.90;12.80;;;;;;;18.21;64.58;99252.18;435136;1257;112784;-43
2023/09/27 20:06:45;;;;;;;;;;;;;;;17.90;65.80;99247.01;435343;1264;99204;-44
2023/09/27 20:16:52;;;;;;;14.20;11.30;;;;;;;18.10;66.34;99240.70;435106;1264;109487;-41
2023/09/27 20:27:01;;;;;;;23.60;14.70;;;;;;;17.99;66.68;99235.69;435318;1251;99210;-43
2023/09/27 20:37:05;;;;;;;;;;;;;;;17.80;67.30;99231.41;435269;1257;111594;-43
2023/09/27 20:47:14;;;;;;;18.40;12.30;;;;;;;17.68;67.64;99230.10;435108;1264;108539;-43
2023/09/27 20:57:20;;;;;;;23.80;16.50;;;;;;;17.58;68.12;99229.30;435229;1256;98014;-40
2023/09/27 21:07:27;;;;;;;20.60;15.30;;;;;;;17.52;68.62;99227.88;435343;1257;108417;-41
2023/09/27 21:17:35;;;;;;;23.80;15.70;;;;;;;17.36;68.84;99230.30;435458;1256;97947;-42
2023/09/27 21:27:42;;;;;;;20.80;14.40;;;;;;;17.03;69.00;99230.27;435229;1264;111866;-42
2023/09/27 21:37:48;;;;;;;22.40;13.40;;;;;;;16.75;69.63;99224.07;435187;1251;108107;-41
2023/09/27 21:47:54;;;;;;;21.10;15.80;;;;;;;16.61;70.34;99216.20;435246;1251;98008;-42
2023/09/27 21:57:59;;;;;;;23.20;16.70;;;;;;;16.37;70.75;99212.65;435293;1251;108042;-42
2023/09/27 22:08:13;;;;;;;21.70;14.90;;;;;;;16.24;71.26;99210.88;435311;1257;99218;-41
2023/09/27 22:18:20;;;;;;;24.90;14.70;;;;;;;16.13;71.63;99208.54;435303;1256;110675;-42
2023/09/27 22:48:42;;;;;;;18.80;16.40;;;;;;;15.48;72.28;99191.94;435233;1256;108553;-42
2023/09/27 22:58:49;;;;;;;22.80;14.20;;;;;;;15.15;72.74;99191.59;435179;1257;99252;-42
2023/09/27 23:19:01;;;;;;;24.00;14.00;;;;;;;14.87;73.58;99181.02;435196;1256;108162;-42
2023/09/27 23:39:29;;;;;;;23.20;17.40;;;;;;;14.88;74.46;99167.66;435257;1256;108343;-43
2023/09/27 23:49:41;;;;;;;27.90;16.80;;;;;;;14.83;74.72;99160.02;435259;1255;98020;-43
2023/09/27 23:59:51;;;;;;;21.30;15.00;;;;;;;14.79;74.90;99156.73;435208;1257;111071;-43
